createdAt,value
2018-08-17T00:00:21.244Z,21.81
2018-08-17T00:02:49.606Z,21.79
2018-08-17T00:05:18.943Z,21.77
2018-08-17T00:07:47.602Z,21.74
2018-08-17T00:10:16.504Z,21.71
2018-08-17T00:12:44.776Z,21.69
2018-08-17T00:15:13.334Z,21.55
2018-08-17T00:17:41.487Z,21.65
2018-08-17T00:20:10.907Z,21.61
2018-08-17T00:22:39.414Z,21.57
2018-08-17T00:25:07.652Z,21.50
2018-08-17T00:27:36.538Z,21.40
2018-08-17T00:30:05.705Z,21.16
2018-08-17T00:32:33.834Z,21.31
2018-08-17T00:35:02.908Z,21.25
2018-08-17T00:37:31.225Z,21.21
2018-08-17T00:39:59.658Z,21.18
2018-08-17T00:42:28.621Z,21.09
2018-08-17T00:44:57.144Z,21.05
2018-08-17T00:47:25.988Z,21.01
2018-08-17T00:49:54.798Z,20.94
2018-08-17T00:52:25.418Z,20.87
2018-08-17T00:54:54.066Z,20.81
2018-08-17T00:57:23.077Z,20.79
2018-08-17T00:59:51.510Z,20.74
2018-08-17T01:02:20.105Z,20.68
2018-08-17T01:04:48.970Z,20.64
2018-08-17T01:07:17.707Z,20.57
2018-08-17T01:09:46.685Z,20.56
2018-08-17T01:12:16.162Z,20.53
2018-08-17T01:14:44.554Z,20.52
2018-08-17T01:17:13.064Z,20.41
2018-08-17T01:19:41.767Z,20.51
2018-08-17T01:22:10.197Z,20.52
2018-08-17T01:24:38.470Z,20.50
2018-08-17T01:27:07.173Z,20.50
2018-08-17T01:29:35.561Z,20.47
2018-08-17T01:32:04.109Z,20.46
2018-08-17T01:34:32.691Z,20.47
2018-08-17T01:37:01.212Z,20.44
2018-08-17T01:39:29.844Z,20.45
2018-08-17T01:41:58.641Z,20.44
2018-08-17T01:44:27.352Z,20.42
2018-08-17T01:46:56.216Z,20.42
2018-08-17T01:49:24.980Z,20.42
2018-08-17T01:51:53.144Z,20.30
2018-08-17T01:54:21.571Z,20.38
2018-08-17T01:56:50.413Z,20.34
2018-08-17T01:59:18.476Z,20.28
2018-08-17T02:01:46.924Z,20.23
2018-08-17T02:04:15.572Z,20.15
2018-08-17T02:06:43.952Z,20.10
2018-08-17T02:09:12.517Z,20.04
2018-08-17T02:11:41.532Z,20.00
2018-08-17T02:14:09.885Z,19.96
2018-08-17T02:16:38.812Z,19.90
2018-08-17T02:19:06.976Z,19.65
2018-08-17T02:21:35.348Z,19.79
2018-08-17T02:24:03.869Z,19.73
2018-08-17T02:26:32.335Z,19.67
2018-08-17T02:29:00.470Z,19.60
2018-08-17T02:31:29.244Z,19.54
2018-08-17T02:33:57.895Z,19.49
2018-08-17T02:36:25.920Z,19.46
2018-08-17T02:38:54.319Z,19.39
2018-08-17T02:41:22.769Z,19.30
2018-08-17T02:43:50.816Z,19.26
2018-08-17T02:46:19.924Z,19.23
2018-08-17T02:48:48.273Z,19.20
2018-08-17T02:51:16.501Z,19.15
2018-08-17T02:53:44.891Z,19.11
2018-08-17T02:56:13.296Z,19.09
2018-08-17T02:58:43.501Z,19.05
2018-08-17T03:01:13.333Z,19.03
2018-08-17T03:03:43.414Z,19.00
2018-08-17T03:06:12.928Z,18.88
2018-08-17T03:08:41.184Z,18.97
2018-08-17T03:11:09.373Z,18.96
2018-08-17T03:13:37.804Z,18.92
2018-08-17T03:16:06.961Z,18.94
2018-08-17T03:18:35.481Z,18.91
2018-08-17T03:21:03.606Z,18.86
2018-08-17T03:23:32.063Z,18.83
2018-08-17T03:26:00.960Z,18.79
2018-08-17T03:28:29.287Z,18.76
2018-08-17T03:30:57.641Z,18.75
2018-08-17T03:33:25.940Z,18.75
2018-08-17T03:35:54.355Z,18.72
2018-08-17T03:38:22.776Z,18.73
2018-08-17T03:40:51.430Z,18.66
2018-08-17T03:43:19.902Z,18.64
2018-08-17T03:45:54.779Z,18.61
2018-08-17T03:48:23.108Z,18.58
2018-08-17T03:50:51.632Z,18.54
2018-08-17T03:53:20.180Z,18.33
2018-08-17T03:55:48.994Z,18.50
2018-08-17T03:58:17.455Z,18.46
2018-08-17T04:00:45.982Z,18.47
2018-08-17T04:03:14.851Z,18.48
2018-08-17T04:05:43.286Z,18.51
2018-08-17T04:08:11.752Z,18.49
2018-08-17T04:10:43.621Z,18.46
2018-08-17T04:13:14.161Z,18.46
2018-08-17T04:15:42.655Z,18.43
2018-08-17T04:18:12.155Z,18.40
2018-08-17T04:20:40.728Z,18.25
2018-08-17T04:23:09.204Z,18.32
2018-08-17T04:25:37.595Z,18.30
2018-08-17T04:28:09.078Z,18.31
2018-08-17T04:30:37.794Z,17.43
2018-08-17T04:33:07.205Z,18.31
2018-08-17T04:35:35.421Z,18.33
2018-08-17T04:38:07.632Z,16.63
2018-08-17T04:40:37.709Z,18.35
2018-08-17T04:43:11.602Z,18.17
2018-08-17T04:45:53.076Z,18.19
2018-08-17T04:48:22.623Z,18.42
2018-08-17T04:50:51.300Z,18.40
2018-08-17T04:53:23.343Z,18.22
2018-08-17T04:55:58.138Z,18.34
2018-08-17T04:58:33.200Z,18.48
2018-08-17T05:01:06.497Z,18.59
2018-08-17T05:03:34.945Z,18.60
2018-08-17T05:06:03.374Z,18.52
2018-08-17T05:08:33.064Z,18.67
2018-08-17T05:11:01.096Z,18.77
2018-08-17T05:13:29.536Z,18.78
2018-08-17T05:15:57.845Z,18.85
2018-08-17T05:18:26.250Z,18.92
2018-08-17T05:20:54.604Z,19.01
2018-08-17T05:23:23.457Z,18.50
2018-08-17T05:25:52.401Z,19.18
2018-08-17T05:28:21.174Z,19.23
2018-08-17T05:30:51.710Z,19.27
2018-08-17T05:33:24.171Z,19.34
2018-08-17T05:35:53.174Z,19.41
2018-08-17T05:38:21.586Z,19.41
2018-08-17T05:40:50.863Z,19.56
2018-08-17T05:43:22.034Z,19.58
2018-08-17T05:45:53.450Z,19.76
2018-08-17T05:48:24.779Z,19.15
2018-08-17T05:50:53.753Z,19.90
2018-08-17T05:53:23.051Z,19.89
2018-08-17T05:55:52.014Z,20.00
2018-08-17T05:58:24.419Z,20.26
2018-08-17T06:00:52.753Z,20.43
2018-08-17T06:03:23.160Z,20.58
2018-08-17T06:05:52.818Z,20.81
2018-08-17T06:08:22.791Z,21.01
2018-08-17T06:10:51.212Z,21.31
2018-08-17T06:13:22.508Z,21.43
2018-08-17T06:15:50.782Z,21.62
2018-08-17T06:18:22.985Z,21.63
2018-08-17T06:20:51.241Z,22.13
2018-08-17T06:23:19.488Z,22.25
2018-08-17T06:25:53.606Z,21.83
2018-08-17T06:28:37.906Z,22.47
2018-08-17T06:31:06.682Z,22.34
2018-08-17T06:33:36.817Z,22.63
2018-08-17T06:36:09.626Z,22.25
2018-08-17T06:38:38.271Z,22.58
2018-08-17T06:41:07.671Z,23.08
2018-08-17T06:43:38.738Z,22.87
2018-08-17T06:46:13.074Z,23.28
2018-08-17T06:48:43.362Z,23.36
2018-08-17T06:51:11.681Z,23.35
2018-08-17T06:53:41.045Z,23.50
2018-08-17T06:56:09.134Z,23.58
2018-08-17T06:58:37.472Z,23.66
2018-08-17T07:01:11.149Z,23.69
2018-08-17T07:03:40.892Z,23.66
2018-08-17T07:06:09.540Z,23.54
2018-08-17T07:08:39.058Z,23.63
2018-08-17T07:11:08.370Z,23.65
2018-08-17T07:13:36.910Z,23.70
2018-08-17T07:16:05.854Z,23.81
2018-08-17T07:18:34.249Z,23.97
2018-08-17T07:21:03.359Z,24.15
2018-08-17T07:23:31.997Z,24.42
2018-08-17T07:26:00.269Z,24.78
2018-08-17T07:28:28.762Z,25.00
2018-08-17T07:31:00.252Z,25.16
2018-08-17T07:33:29.627Z,25.22
2018-08-17T07:35:58.441Z,25.40
2018-08-17T07:38:26.729Z,25.58
2018-08-17T07:40:56.940Z,25.88
2018-08-17T07:43:25.478Z,25.99
2018-08-17T07:45:54.584Z,26.22
2018-08-17T07:48:23.202Z,26.39
2018-08-17T07:50:53.058Z,26.58
2018-08-17T07:53:22.713Z,26.33
2018-08-17T07:55:50.896Z,26.79
2018-08-17T07:58:19.790Z,27.46
2018-08-17T08:00:48.708Z,27.79
2018-08-17T08:03:21.060Z,28.03
2018-08-17T08:05:49.114Z,28.40
2018-08-17T08:08:17.784Z,28.08
2018-08-17T08:10:53.330Z,29.00
2018-08-17T08:13:21.657Z,29.17
2018-08-17T08:15:50.407Z,29.25
2018-08-17T08:18:19.872Z,29.16
2018-08-17T08:20:50.347Z,29.21
2018-08-17T08:23:24.102Z,29.28
2018-08-17T08:25:56.392Z,29.35
2018-08-17T08:28:26.340Z,29.43
2018-08-17T08:30:55.596Z,29.65
2018-08-17T08:33:28.470Z,28.87
2018-08-17T08:35:58.783Z,30.08
2018-08-17T08:38:30.757Z,30.03
2018-08-17T08:41:03.664Z,30.37
2018-08-17T08:43:33.351Z,30.44
2018-08-17T08:46:02.222Z,30.40
2018-08-17T08:48:36.604Z,30.43
2018-08-17T08:51:05.164Z,30.55
2018-08-17T08:53:37.151Z,30.12
2018-08-17T08:56:07.094Z,30.64
2018-08-17T08:58:40.578Z,30.62
2018-08-17T09:01:13.845Z,29.73
2018-08-17T09:06:33.217Z,30.62
2018-08-17T09:09:09.881Z,30.46
2018-08-17T09:14:15.871Z,30.71
2018-08-17T09:16:49.233Z,30.82
2018-08-17T09:19:22.109Z,30.99
2018-08-17T09:21:52.271Z,31.02
2018-08-17T09:24:20.541Z,31.07
2018-08-17T09:26:50.319Z,31.20
2018-08-17T09:29:19.006Z,31.30
2018-08-17T09:31:51.463Z,31.45
2018-08-17T09:34:21.050Z,31.27
2018-08-17T09:36:50.192Z,31.40
2018-08-17T09:39:18.517Z,31.35
2018-08-17T09:41:49.803Z,31.20
2018-08-17T09:44:18.367Z,31.18
2018-08-17T09:46:46.673Z,31.00
2018-08-17T09:49:19.115Z,30.97
2018-08-17T09:51:48.221Z,31.24
2018-08-17T09:54:21.917Z,31.38
2018-08-17T09:56:55.808Z,31.19
2018-08-17T09:59:24.623Z,31.06
2018-08-17T10:02:03.833Z,30.68
2018-08-17T10:04:38.146Z,31.57
2018-08-17T10:07:11.935Z,31.75
2018-08-17T10:09:45.958Z,31.70
2018-08-17T10:12:14.137Z,31.69
2018-08-17T10:14:42.395Z,31.77
2018-08-17T10:17:14.944Z,31.83
2018-08-17T10:19:43.651Z,31.67
2018-08-17T10:22:12.197Z,31.76
2018-08-17T10:24:40.668Z,31.78
2018-08-17T10:27:09.004Z,31.69
2018-08-17T10:29:39.056Z,31.54
2018-08-17T10:32:07.715Z,31.83
2018-08-17T10:34:35.840Z,32.23
2018-08-17T10:37:04.205Z,32.36
2018-08-17T10:39:32.641Z,32.46
2018-08-17T10:42:00.739Z,32.53
2018-08-17T10:44:28.981Z,32.75
2018-08-17T10:46:57.549Z,32.82
2018-08-17T10:49:25.731Z,32.59
2018-08-17T10:51:56.488Z,32.50
2018-08-17T10:54:25.451Z,32.48
2018-08-17T10:56:53.557Z,32.65
2018-08-17T10:59:21.738Z,32.75
2018-08-17T11:01:50.427Z,32.78
2018-08-17T11:04:18.512Z,32.97
2018-08-17T11:06:46.624Z,33.12
2018-08-17T11:09:15.417Z,33.24
2018-08-17T11:11:43.688Z,33.58
2018-08-17T11:14:11.867Z,33.76
2018-08-17T11:16:40.580Z,33.88
2018-08-17T11:19:09.376Z,34.19
2018-08-17T11:21:41.462Z,34.42
2018-08-17T11:24:10.131Z,34.55
2018-08-17T11:26:38.579Z,34.72
2018-08-17T11:29:06.647Z,34.68
2018-08-17T11:31:35.794Z,34.42
2018-08-17T11:34:04.801Z,34.26
2018-08-17T11:36:33.268Z,33.94
2018-08-17T11:39:01.378Z,34.02
2018-08-17T11:41:31.605Z,34.12
2018-08-17T11:44:03.348Z,34.33
2018-08-17T11:46:32.277Z,34.34
2018-08-17T11:49:00.524Z,34.22
2018-08-17T11:51:29.576Z,34.13
2018-08-17T11:53:58.278Z,34.09
2018-08-17T11:56:26.896Z,34.18
2018-08-17T11:58:55.665Z,34.18
2018-08-17T12:01:27.149Z,34.02
2018-08-17T12:03:55.443Z,33.68
2018-08-17T12:06:24.020Z,33.54
2018-08-17T12:08:52.264Z,33.70
2018-08-17T12:11:20.504Z,34.08
2018-08-17T12:13:49.017Z,34.33
2018-08-17T12:16:17.105Z,34.49
2018-08-17T12:18:45.437Z,34.64
2018-08-17T12:21:14.092Z,34.64
2018-08-17T12:23:42.483Z,34.63
2018-08-17T12:26:10.829Z,34.65
2018-08-17T12:28:39.404Z,34.27
2018-08-17T12:31:07.699Z,33.96
2018-08-17T12:33:35.870Z,34.02
2018-08-17T12:36:04.308Z,34.09
2018-08-17T12:38:33.123Z,34.50
2018-08-17T12:41:01.333Z,34.28
2018-08-17T12:43:32.445Z,34.30
2018-08-17T12:46:01.271Z,34.07
2018-08-17T12:48:29.934Z,33.81
2018-08-17T12:51:03.758Z,34.19
2018-08-17T12:53:33.177Z,34.55
2018-08-17T12:56:01.464Z,34.86
2018-08-17T12:58:30.418Z,35.09
2018-08-17T13:01:00.186Z,35.30
2018-08-17T13:03:29.654Z,35.53
2018-08-17T13:05:58.043Z,35.31
2018-08-17T13:08:26.400Z,35.31
2018-08-17T13:10:59.515Z,35.27
2018-08-17T13:13:28.281Z,35.38
2018-08-17T13:16:03.887Z,35.57
2018-08-17T13:18:35.328Z,35.67
2018-08-17T13:21:05.937Z,35.68
2018-08-17T13:23:35.645Z,35.94
2018-08-17T13:26:12.562Z,36.14
2018-08-17T13:28:42.064Z,36.19
2018-08-17T13:31:10.906Z,36.11
2018-08-17T13:33:42.124Z,35.87
2018-08-17T13:36:19.868Z,35.93
2018-08-17T13:38:55.697Z,36.08
2018-08-17T13:41:28.038Z,36.20
2018-08-17T13:43:59.159Z,36.18
2018-08-17T13:46:29.387Z,36.27
2018-08-17T13:49:02.732Z,35.98
2018-08-17T13:51:32.217Z,36.08
2018-08-17T13:54:07.338Z,35.91
2018-08-17T13:56:39.845Z,35.61
2018-08-17T13:59:09.284Z,35.36
2018-08-17T14:01:45.642Z,35.28
2018-08-17T14:04:17.911Z,35.14
2018-08-17T14:06:47.603Z,35.15
2018-08-17T14:09:17.589Z,35.17
2018-08-17T14:11:48.225Z,35.09
2018-08-17T14:14:26.434Z,35.03
2018-08-17T14:17:00.048Z,34.88
2018-08-17T14:19:30.735Z,34.79
2018-08-17T14:22:02.412Z,34.74
2018-08-17T14:24:34.664Z,34.72
2018-08-17T14:27:03.974Z,34.53
2018-08-17T14:29:33.999Z,34.58
2018-08-17T14:32:02.483Z,34.50
2018-08-17T14:34:32.761Z,34.30
2018-08-17T14:37:03.592Z,34.20
2018-08-17T14:39:34.313Z,33.98
2018-08-17T14:42:06.635Z,33.67
2018-08-17T14:44:40.059Z,33.40
2018-08-17T14:47:14.616Z,33.26
2018-08-17T14:49:45.607Z,33.18
2018-08-17T14:52:15.735Z,33.10
2018-08-17T14:54:44.605Z,32.99
2018-08-17T14:57:14.522Z,33.06
2018-08-17T14:59:45.064Z,33.11
2018-08-17T15:02:15.050Z,33.05
2018-08-17T15:04:44.267Z,32.90
2018-08-17T15:07:12.985Z,33.04
2018-08-17T15:09:41.139Z,32.60
2018-08-17T15:12:09.848Z,33.37
2018-08-17T15:14:38.854Z,33.36
2018-08-17T15:17:07.444Z,33.22
2018-08-17T15:19:37.416Z,33.03
2018-08-17T15:22:05.743Z,32.86
2018-08-17T15:24:41.843Z,32.69
2018-08-17T15:27:13.330Z,32.39
2018-08-17T15:29:46.789Z,32.41
2018-08-17T15:32:15.637Z,32.16
2018-08-17T15:34:45.160Z,32.23
2018-08-17T15:37:14.568Z,32.15
2018-08-17T15:39:43.609Z,32.07
2018-08-17T15:42:13.414Z,32.00
2018-08-17T15:44:45.197Z,31.99
2018-08-17T15:47:16.555Z,31.99
2018-08-17T15:50:00.962Z,31.98
2018-08-17T15:52:29.746Z,31.97
2018-08-17T15:54:59.711Z,31.97
2018-08-17T15:57:27.921Z,31.93
2018-08-17T15:59:56.275Z,31.67
2018-08-17T16:02:25.941Z,31.77
2018-08-17T16:04:54.511Z,31.50
2018-08-17T16:07:24.087Z,31.62
2018-08-17T16:09:53.447Z,31.48
2018-08-17T16:12:22.108Z,31.67
2018-08-17T16:14:55.766Z,31.71
2018-08-17T16:17:24.060Z,31.67
2018-08-17T16:19:54.518Z,31.53
2018-08-17T16:22:25.082Z,31.40
2018-08-17T16:24:55.854Z,31.27
2018-08-17T16:27:24.746Z,30.66
2018-08-17T16:29:53.467Z,30.83
2018-08-17T16:32:22.225Z,30.63
2018-08-17T16:34:50.420Z,30.11
2018-08-17T16:37:19.617Z,30.05
2018-08-17T16:39:55.903Z,30.12
2018-08-17T16:42:30.872Z,29.96
2018-08-17T16:47:36.983Z,29.72
2018-08-17T16:50:06.808Z,29.66
2018-08-17T16:52:35.790Z,29.57
2018-08-17T16:55:04.631Z,29.43
2018-08-17T16:57:33.087Z,29.26
2018-08-17T17:00:04.655Z,28.88
2018-08-17T17:02:37.627Z,28.89
2018-08-17T17:05:08.396Z,28.73
2018-08-17T17:07:36.884Z,28.43
2018-08-17T17:10:08.146Z,28.66
2018-08-17T17:12:36.947Z,28.54
2018-08-17T17:15:12.829Z,28.27
2018-08-17T17:17:41.423Z,28.38
2018-08-17T17:20:10.900Z,28.33
2018-08-17T17:22:39.295Z,28.30
2018-08-17T17:25:13.762Z,28.27
2018-08-17T17:27:45.701Z,28.08
2018-08-17T17:30:16.398Z,27.22
2018-08-17T17:32:44.829Z,28.11
2018-08-17T17:35:13.106Z,28.03
2018-08-17T17:37:45.343Z,27.95
2018-08-17T17:40:14.271Z,27.27
2018-08-17T17:42:42.651Z,27.63
2018-08-17T17:45:11.261Z,27.76
2018-08-17T17:47:39.655Z,27.72
2018-08-17T17:50:08.166Z,27.69
2018-08-17T17:52:36.450Z,27.63
2018-08-17T17:55:05.428Z,27.48
2018-08-17T17:57:38.139Z,27.22
2018-08-17T18:00:07.860Z,26.94
2018-08-17T18:02:37.124Z,26.48
2018-08-17T18:05:16.014Z,26.55
2018-08-17T18:07:47.477Z,26.35
2018-08-17T18:10:20.437Z,26.08
2018-08-17T18:12:49.467Z,25.92
2018-08-17T18:15:18.688Z,25.76
2018-08-17T18:17:47.828Z,25.53
2018-08-17T18:20:18.991Z,25.35
2018-08-17T18:22:47.728Z,25.17
2018-08-17T18:25:19.868Z,25.04
2018-08-17T18:27:49.522Z,24.90
2018-08-17T18:30:20.461Z,24.75
2018-08-17T18:32:49.324Z,24.65
2018-08-17T18:35:24.219Z,24.56
2018-08-17T18:37:53.686Z,24.49
2018-08-17T18:40:22.251Z,24.47
2018-08-17T18:42:56.292Z,24.44
2018-08-17T18:45:26.448Z,24.37
2018-08-17T18:47:55.790Z,23.93
2018-08-17T18:50:24.716Z,24.26
2018-08-17T18:52:54.213Z,24.19
2018-08-17T18:55:22.986Z,23.84
2018-08-17T18:57:51.255Z,24.13
2018-08-17T19:00:19.641Z,24.15
2018-08-17T19:02:48.160Z,23.97
2018-08-17T19:05:16.909Z,24.11
2018-08-17T19:07:45.895Z,24.07
2018-08-17T19:10:14.271Z,24.05
2018-08-17T19:12:42.352Z,24.03
2018-08-17T19:15:12.351Z,24.00
2018-08-17T19:17:40.860Z,23.85
2018-08-17T19:20:11.204Z,23.91
2018-08-17T19:22:41.378Z,23.85
2018-08-17T19:25:11.196Z,23.79
2018-08-17T19:27:40.076Z,23.73
2018-08-17T19:30:18.967Z,23.48
2018-08-17T19:32:47.759Z,23.37
2018-08-17T19:35:16.573Z,23.49
2018-08-17T19:37:45.558Z,23.05
2018-08-17T19:40:13.646Z,23.30
2018-08-17T19:42:46.698Z,23.31
2018-08-17T19:45:14.784Z,23.21
2018-08-17T19:47:43.093Z,23.14
2018-08-17T19:50:12.491Z,23.08
2018-08-17T19:52:40.779Z,23.00
2018-08-17T19:55:10.912Z,22.95
2018-08-17T19:57:40.648Z,22.89
2018-08-17T20:00:11.665Z,22.86
2018-08-17T20:02:39.886Z,22.76
2018-08-17T20:05:09.236Z,22.68
2018-08-17T20:07:39.617Z,22.90
2018-08-17T20:10:09.153Z,22.92
2018-08-17T20:12:38.698Z,22.92
2018-08-17T20:15:07.929Z,22.86
2018-08-17T20:17:36.594Z,22.85
2018-08-17T20:20:08.534Z,22.84
2018-08-17T20:22:38.973Z,22.84
2018-08-17T20:25:16.474Z,22.72
2018-08-17T20:27:50.051Z,22.92
2018-08-17T20:30:29.467Z,22.93
2018-08-17T20:32:59.314Z,22.60
2018-08-17T20:35:29.649Z,22.76
2018-08-17T20:37:58.137Z,22.82
2018-08-17T20:40:26.672Z,22.83
2018-08-17T20:42:55.898Z,22.73
2018-08-17T20:45:26.827Z,22.70
2018-08-17T20:47:55.282Z,22.76
2018-08-17T20:50:23.940Z,22.74
2018-08-17T20:52:57.535Z,22.72
2018-08-17T20:55:27.327Z,22.63
2018-08-17T20:57:58.536Z,22.76
2018-08-17T21:00:29.416Z,22.66
2018-08-17T21:02:58.804Z,22.74
2018-08-17T21:05:27.456Z,22.71
2018-08-17T21:07:57.672Z,22.71
2018-08-17T21:10:27.455Z,22.69
2018-08-17T21:12:56.357Z,22.59
2018-08-17T21:15:25.652Z,22.66
2018-08-17T21:17:53.798Z,22.54
2018-08-17T21:20:22.420Z,22.61
2018-08-17T21:22:51.146Z,22.45
2018-08-17T21:25:21.513Z,22.21
2018-08-17T21:27:49.816Z,22.43
2018-08-17T21:30:20.982Z,22.38
2018-08-17T21:32:50.164Z,22.35
2018-08-17T21:35:21.854Z,22.09
2018-08-17T21:37:51.248Z,22.28
2018-08-17T21:40:28.719Z,22.17
2018-08-17T21:42:57.758Z,22.23
2018-08-17T21:45:26.184Z,22.23
2018-08-17T21:47:55.481Z,22.24
2018-08-17T21:50:24.563Z,22.24
2018-08-17T21:52:52.971Z,22.14
2018-08-17T21:55:21.569Z,22.25
2018-08-17T21:57:49.680Z,22.25
2018-08-17T22:00:22.230Z,21.87
2018-08-17T22:02:52.237Z,22.25
2018-08-17T22:05:28.820Z,22.22
2018-08-17T22:07:59.844Z,22.20
2018-08-17T22:10:28.786Z,22.19
2018-08-17T22:12:57.619Z,22.23
2018-08-17T22:15:28.892Z,21.82
2018-08-17T22:17:57.421Z,22.23
2018-08-17T22:20:26.026Z,22.23
2018-08-17T22:22:54.870Z,22.15
2018-08-17T22:25:23.753Z,22.24
2018-08-17T22:27:53.067Z,22.26
2018-08-17T22:30:23.448Z,22.27
2018-08-17T22:32:51.978Z,22.30
2018-08-17T22:35:20.345Z,22.31
2018-08-17T22:37:50.463Z,22.21
2018-08-17T22:40:19.127Z,22.31
2018-08-17T22:42:48.070Z,22.28
2018-08-17T22:45:16.831Z,22.16
2018-08-17T22:47:45.992Z,22.26
2018-08-17T22:50:14.887Z,22.27
2018-08-17T22:52:43.303Z,22.28
2018-08-17T22:55:12.283Z,22.22
2018-08-17T22:57:40.662Z,22.20
2018-08-17T23:00:22.083Z,22.16
2018-08-17T23:02:52.696Z,22.13
2018-08-17T23:05:23.711Z,22.10
2018-08-17T23:07:51.883Z,22.08
2018-08-17T23:10:21.343Z,22.06
2018-08-17T23:12:51.229Z,22.04
2018-08-17T23:15:20.126Z,21.89
2018-08-17T23:17:53.286Z,21.95
2018-08-17T23:20:26.675Z,21.94
2018-08-17T23:22:55.851Z,21.89
2018-08-17T23:25:25.074Z,21.82
2018-08-17T23:27:53.688Z,21.65
2018-08-17T23:30:21.998Z,21.67
2018-08-17T23:32:51.794Z,21.63
2018-08-17T23:35:20.351Z,21.58
2018-08-17T23:37:49.224Z,21.54
2018-08-17T23:40:19.063Z,21.14
2018-08-17T23:42:47.481Z,21.45
2018-08-17T23:45:16.740Z,21.39
2018-08-17T23:47:45.384Z,21.29
2018-08-17T23:50:14.532Z,21.30
2018-08-17T23:52:43.080Z,21.27
2018-08-17T23:55:13.853Z,21.19
2018-08-17T23:57:42.142Z,21.16
